Terminal Aerodrome Forecast
Issued by NWS

Home | Current Version | Previous Version | Text Only | Print | Product List | Glossary On
Versions: 1 2 3 4 5 6 7 8 9 10 11 12 13 14 15 16 17 18 19 20 21 22 23
000
FTUS43 KILX 191153 AAA
TAFCMI
TAF AMD
KCMI 191153Z 1912/2012 32010KT P6SM VCSH BKN010 OVC025
     FM191400 32010KT P6SM OVC015
     FM191600 35010KT P6SM SCT020
     FM200000 35006KT P6SM SKC=

USA.gov is the U.S. government's official web portal to all federal, state and local government web resources and services.